Pagrindinis puslapis
METAR-TAF:

METAR-TAF

Oro uostai :

McGregor Executive Airport

Waco, Teksasas, Jungtinės Amerikos Valstijos

platuma: 31-29N, ilguma: 097-19W, Aukštis: 180 m

Dabartinis oras

Ataskaita buvo paskelbta 24 minutes, ne 20:56 UTC
Vėjas 20 kt iš Pietų su gūsio iki 28 kt
Temperatūra 31°C
Drėgmė 49%
Slėgis 1009 hPa
Matomumas: 16.1 km
Su prošvaistėmis ne aukštis 5500 ft

METAR: KPWG 082056Z AUTO 18020G28KT 10SM BKN055 31/19 A2980 RMK AO2 PK WND 17029/2018 SLP082 T03060194 56031

Laikas: 16:20 (21:20 UTC)


TAF: trūkstamas

Orai ataskaitas ir orų prognozės (METAR, TAF).

turimą stotys yra geltonos ir raudonos taškus žemėlapyje.

Perkelti pele per norėdami pamatyti stoties vardą.

Tada spustelėkite, norėdami matyti oro stebėjimo ir prognozės.

Norėdami pakeisti žemėlapį: spustelėkite ant žalios mygtukų su juodo kryžiaus žemyn,; žalią mygtuką su brūkšneliu, jei norite nutolinti; arba žalių rodyklių gretimoms žemėlapius.


METAR-TAF: